Time;durP1;ratioP1;P1;durP2;ratioP2;P2;SDS_P1;SDS_P2;PMS_P1;PMS_P2;Temp;Humidity;BMP_temperature;BMP_pressure;BME280_temperature;BME280_humidity;BME280_pressure;Samples;Min_cycle;Max_cycle;Signal;HPM_P1;HPM_P2
2022/06/25 00:00:30;;;;;;;1.38;0.50;;;18.40;99.90;;;;;;5065818;28;20045;-72
2022/06/25 00:02:56;;;;;;;0.20;0.20;;;18.40;99.90;;;;;;5048800;28;20094;-72
2022/06/25 00:05:27;;;;;;;1.00;0.90;;;18.40;99.90;;;;;;5068042;28;20055;-72
2022/06/25 00:07:53;;;;;;;0.10;0.10;;;18.40;99.90;;;;;;5090152;28;20044;-72
2022/06/25 00:10:19;;;;;;;1.70;0.75;;;18.40;99.90;;;;;;5089908;28;20546;-72
2022/06/25 00:12:44;;;;;;;0.32;0.32;;;18.40;99.90;;;;;;5068940;28;20048;-71
2022/06/25 00:15:10;;;;;;;0.25;0.25;;;18.50;99.90;;;;;;5077070;28;20049;-72
2022/06/25 00:17:36;;;;;;;0.25;0.25;;;18.50;99.90;;;;;;5073928;28;20121;-72
2022/06/25 00:20:03;;;;;;;0.10;0.10;;;18.40;99.90;;;;;;5070716;28;20048;-72
2022/06/25 00:22:29;;;;;;;0.10;0.10;;;18.40;99.90;;;;;;5062570;28;20492;-72
2022/06/25 00:24:54;;;;;;;0.22;0.22;;;18.40;99.90;;;;;;5069066;28;20052;-72
2022/06/25 00:27:20;;;;;;;0.93;0.93;;;18.40;99.90;;;;;;5067121;28;20045;-72
2022/06/25 00:29:46;;;;;;;0.38;0.38;;;18.40;99.90;;;;;;5069884;28;20115;-72
2022/06/25 00:32:11;;;;;;;0.30;0.30;;;18.40;99.90;;;;;;5068816;28;20044;-71
2022/06/25 00:34:38;;;;;;;0.85;0.85;;;18.40;99.90;;;;;;5068008;28;20076;-72
2022/06/25 00:37:05;;;;;;;0.40;0.40;;;18.40;99.90;;;;;;5069440;28;20044;-72
2022/06/25 00:39:30;;;;;;;2.63;0.55;;;18.50;99.90;;;;;;5068898;28;20044;-72
2022/06/25 00:41:56;;;;;;;0.20;0.20;;;18.40;99.90;;;;;;5071506;28;20032;-72
2022/06/25 00:44:21;;;;;;;1.75;0.90;;;18.40;99.90;;;;;;5089253;28;20044;-72
2022/06/25 00:46:47;;;;;;;1.63;0.60;;;18.40;99.90;;;;;;5071185;28;20040;-72
2022/06/25 00:49:13;;;;;;;0.40;0.35;;;18.30;99.90;;;;;;5079589;28;20083;-72
2022/06/25 00:51:41;;;;;;;0.10;0.10;;;18.30;99.90;;;;;;5069424;28;20049;-72
2022/06/25 00:54:09;;;;;;;0.77;0.77;;;18.30;99.90;;;;;;5068667;28;20092;-72
2022/06/25 00:56:42;;;;;;;1.55;0.85;;;18.30;99.90;;;;;;5066789;28;20044;-72
2022/06/25 00:59:09;;;;;;;4.10;1.25;;;18.30;99.90;;;;;;5079296;28;20052;-72
2022/06/25 01:01:35;;;;;;;0.20;0.20;;;18.40;99.90;;;;;;5079668;28;20112;-72
2022/06/25 01:04:01;;;;;;;0.20;0.20;;;18.30;99.90;;;;;;5031586;28;20531;-72
2022/06/25 01:06:30;;;;;;;0.28;0.22;;;18.30;99.90;;;;;;5061742;28;20633;-72
2022/06/25 01:08:57;;;;;;;0.73;0.73;;;18.30;99.90;;;;;;5047404;28;20052;-72
2022/06/25 01:11:23;;;;;;;1.45;1.35;;;18.20;99.90;;;;;;5033117;28;20055;-72
2022/06/25 01:13:49;;;;;;;1.33;1.23;;;18.20;99.90;;;;;;5071067;28;20044;-72
2022/06/25 01:16:15;;;;;;;1.27;0.98;;;18.20;99.90;;;;;;5050523;28;20121;-72
2022/06/25 01:18:40;;;;;;;0.40;0.40;;;18.20;99.90;;;;;;5070236;28;20036;-71
2022/06/25 01:21:06;;;;;;;0.45;0.45;;;18.20;99.90;;;;;;5053303;28;20052;-72
2022/06/25 01:23:31;;;;;;;0.75;0.75;;;18.20;99.90;;;;;;5061480;28;20044;-72
2022/06/25 01:25:57;;;;;;;1.50;1.40;;;18.20;99.90;;;;;;5054500;28;20045;-72
2022/06/25 01:28:23;;;;;;;2.83;1.02;;;18.20;99.90;;;;;;5063129;28;20043;-72
2022/06/25 01:30:48;;;;;;;0.60;0.50;;;18.20;99.90;;;;;;5075239;28;20056;-72
2022/06/25 01:33:14;;;;;;;0.95;0.88;;;18.20;99.90;;;;;;5087902;28;20476;-72
2022/06/25 01:35:39;;;;;;;0.10;0.10;;;18.10;99.90;;;;;;5071315;28;20049;-72
2022/06/25 01:38:05;;;;;;;0.20;0.20;;;18.10;99.90;;;;;;5052145;28;20037;-72
2022/06/25 01:40:31;;;;;;;4.07;1.23;;;18.10;99.90;;;;;;5050755;28;20061;-72
2022/06/25 01:43:01;;;;;;;1.27;0.40;;;18.10;99.90;;;;;;5067461;28;20105;-72
2022/06/25 01:45:35;;;;;;;0.95;0.85;;;18.10;99.90;;;;;;5077485;28;20040;-72
2022/06/25 01:48:01;;;;;;;0.77;0.73;;;18.10;99.90;;;;;;5074194;28;20048;-72
2022/06/25 01:50:28;;;;;;;2.90;1.00;;;18.10;99.90;;;;;;5091939;28;20040;-72
2022/06/25 01:52:54;;;;;;;1.40;1.30;;;18.10;99.90;;;;;;5087843;28;20543;-72
2022/06/25 01:55:20;;;;;;;1.30;1.23;;;18.00;99.90;;;;;;5068055;28;20178;-72
2022/06/25 01:57:46;;;;;;;0.55;0.55;;;18.00;99.90;;;;;;5090099;28;20040;-72
2022/06/25 02:00:18;;;;;;;3.03;2.03;;;18.00;99.90;;;;;;5072301;28;20411;-72
2022/06/25 02:02:45;;;;;;;0.20;0.20;;;18.10;99.90;;;;;;5092744;28;20428;-71
2022/06/25 02:05:13;;;;;;;0.25;0.25;;;18.00;99.90;;;;;;5078426;28;20045;-72
2022/06/25 02:07:39;;;;;;;0.55;0.55;;;18.00;99.90;;;;;;5071974;28;20581;-72
2022/06/25 02:10:05;;;;;;;0.80;0.80;;;18.00;99.90;;;;;;5054193;28;20400;-72
2022/06/25 02:12:30;;;;;;;0.68;0.68;;;17.90;99.90;;;;;;5053560;28;20512;-72
2022/06/25 02:14:56;;;;;;;0.22;0.22;;;17.90;99.90;;;;;;5078198;28;20127;-72
2022/06/25 02:17:21;;;;;;;0.30;0.30;;;17.90;99.90;;;;;;5091422;28;20139;-72
2022/06/25 02:19:47;;;;;;;0.73;0.73;;;17.80;99.90;;;;;;5073395;28;20490;-72
2022/06/25 02:22:14;;;;;;;0.52;0.52;;;17.90;99.90;;;;;;5088223;28;20048;-72
2022/06/25 02:24:44;;;;;;;1.17;1.08;;;17.90;99.90;;;;;;5070387;28;20068;-72
2022/06/25 02:27:10;;;;;;;0.30;0.30;;;17.80;99.90;;;;;;5071590;28;20033;-72
2022/06/25 02:29:36;;;;;;;0.50;0.50;;;17.90;99.90;;;;;;5052308;28;20127;-71
2022/06/25 02:32:03;;;;;;;0.52;0.47;;;17.80;99.90;;;;;;5090026;28;20040;-72
2022/06/25 02:34:29;;;;;;;0.10;0.10;;;17.80;99.90;;;;;;5064173;28;20041;-71
2022/06/25 02:36:55;;;;;;;0.10;0.10;;;17.80;99.90;;;;;;5067803;28;20044;-72
2022/06/25 02:39:21;;;;;;;0.90;0.85;;;17.90;99.90;;;;;;5055471;28;20391;-72
2022/06/25 02:41:46;;;;;;;0.10;0.10;;;17.80;99.90;;;;;;5091921;28;20047;-71
2022/06/25 02:44:12;;;;;;;1.48;1.10;;;17.90;99.90;;;;;;5063683;28;20136;-72
2022/06/25 02:46:37;;;;;;;0.77;0.77;;;17.90;99.90;;;;;;5048031;28;20115;-72
2022/06/25 02:49:03;;;;;;;0.10;0.10;;;17.80;99.90;;;;;;5071163;28;20442;-71
2022/06/25 02:51:29;;;;;;;0.30;0.30;;;17.80;99.90;;;;;;5073040;28;20111;-71
2022/06/25 02:53:57;;;;;;;0.57;0.40;;;17.80;99.90;;;;;;5090605;28;20256;-72
2022/06/25 02:59:08;;;;;;;0.50;0.50;;;17.90;99.90;;;;;;5073237;28;20051;-72
2022/06/25 03:01:34;;;;;;;0.95;0.85;;;17.80;99.90;;;;;;5051320;28;20480;-71
2022/06/25 03:04:00;;;;;;;1.80;1.65;;;17.80;99.90;;;;;;5067308;28;20109;-72
2022/06/25 03:06:25;;;;;;;0.90;0.90;;;17.80;99.90;;;;;;5070954;28;20079;-71
2022/06/25 03:08:51;;;;;;;0.65;0.65;;;17.80;99.90;;;;;;5052582;28;20426;-71
2022/06/25 03:11:17;;;;;;;2.30;0.50;;;17.90;99.90;;;;;;5053061;28;20332;-72
2022/06/25 03:13:43;;;;;;;0.25;0.25;;;17.90;99.90;;;;;;5048632;28;20120;-72
2022/06/25 03:16:10;;;;;;;1.77;1.25;;;17.90;99.90;;;;;;5090990;28;20134;-72
2022/06/25 03:18:36;;;;;;;1.55;0.85;;;17.80;99.90;;;;;;5091376;28;20040;-72
2022/06/25 03:21:02;;;;;;;0.40;0.40;;;17.80;99.90;;;;;;5068723;28;20877;-72
2022/06/25 03:23:28;;;;;;;2.20;1.17;;;17.90;99.90;;;;;;5068325;28;20041;-72
2022/06/25 03:25:54;;;;;;;0.55;0.30;;;17.90;99.90;;;;;;5070580;28;20048;-72
2022/06/25 03:28:20;;;;;;;0.88;0.88;;;17.90;99.90;;;;;;5051773;28;20044;-72
2022/06/25 03:30:46;;;;;;;0.35;0.35;;;17.90;99.90;;;;;;5064753;28;20411;-72
2022/06/25 03:33:13;;;;;;;1.25;1.20;;;17.90;99.90;;;;;;5090583;28;20040;-71
2022/06/25 03:35:38;;;;;;;0.73;0.73;;;17.90;99.90;;;;;;5071796;28;20091;-72
2022/06/25 03:38:04;;;;;;;0.85;0.30;;;17.90;99.90;;;;;;5061205;28;20518;-71
2022/06/25 03:40:30;;;;;;;0.25;0.25;;;17.90;99.90;;;;;;5051890;28;20101;-72
2022/06/25 03:42:56;;;;;;;0.35;0.22;;;17.90;99.90;;;;;;5080046;28;20051;-72
2022/06/25 03:45:21;;;;;;;0.25;0.25;;;17.90;99.90;;;;;;5090241;28;20040;-72
2022/06/25 03:47:50;;;;;;;0.05;0.05;;;17.90;99.90;;;;;;5072343;28;20043;-72
2022/06/25 03:50:20;;;;;;;1.00;1.00;;;17.90;99.90;;;;;;5071584;28;20075;-72
2022/06/25 03:52:48;;;;;;;0.08;0.08;;;17.90;99.90;;;;;;5049875;28;20057;-72
2022/06/25 03:55:14;;;;;;;1.38;1.27;;;17.90;99.90;;;;;;5051883;28;20053;-72
2022/06/25 03:57:40;;;;;;;0.25;0.25;;;17.90;99.90;;;;;;5051390;28;20068;-72
2022/06/25 04:00:09;;;;;;;0.55;0.55;;;17.90;99.90;;;;;;5052048;28;20048;-72
2022/06/25 04:02:35;;;;;;;0.55;0.55;;;17.90;99.90;;;;;;5047171;28;20055;-72
2022/06/25 04:05:01;;;;;;;0.10;0.10;;;17.90;99.90;;;;;;5051093;28;20094;-72
2022/06/25 04:07:27;;;;;;;0.35;0.35;;;17.90;99.90;;;;;;5051945;28;20045;-72
2022/06/25 04:09:52;;;;;;;0.60;0.60;;;17.90;99.90;;;;;;5070354;28;20449;-72
2022/06/25 04:12:18;;;;;;;0.25;0.25;;;17.90;99.90;;;;;;5067665;28;20049;-72
2022/06/25 04:14:44;;;;;;;0.50;0.50;;;17.90;99.90;;;;;;5051860;28;20044;-72
2022/06/25 04:17:10;;;;;;;0.52;0.52;;;17.90;99.90;;;;;;5073729;28;20404;-72
2022/06/25 04:19:40;;;;;;;0.20;0.20;;;17.90;99.90;;;;;;5089913;28;20047;-72
2022/06/25 04:22:12;;;;;;;0.22;0.22;;;18.00;99.90;;;;;;5090054;28;20177;-71
2022/06/25 04:24:39;;;;;;;0.90;0.90;;;18.00;99.90;;;;;;5071070;28;20040;-72
2022/06/25 04:27:06;;;;;;;0.20;0.20;;;18.00;99.90;;;;;;5048410;28;20501;-72
2022/06/25 04:29:32;;;;;;;0.10;0.10;;;18.00;99.90;;;;;;5066172;28;20051;-72
2022/06/25 04:31:58;;;;;;;0.30;0.30;;;18.00;99.90;;;;;;5089178;28;20044;-72
2022/06/25 04:34:24;;;;;;;1.25;1.10;;;18.10;99.90;;;;;;5081647;28;20476;-72
2022/06/25 04:36:50;;;;;;;0.20;0.20;;;18.10;99.90;;;;;;5069940;28;20052;-72
2022/06/25 04:39:16;;;;;;;1.75;1.17;;;18.10;99.90;;;;;;5068889;28;20122;-72
2022/06/25 04:41:41;;;;;;;0.10;0.10;;;18.10;99.90;;;;;;5072774;28;20078;-72
2022/06/25 04:44:07;;;;;;;0.32;0.32;;;18.20;99.90;;;;;;5089598;28;20040;-72
2022/06/25 04:46:33;;;;;;;0.35;0.35;;;18.20;99.90;;;;;;5083217;28;20513;-72
2022/06/25 04:48:59;;;;;;;7.68;0.63;;;18.30;99.90;;;;;;5047461;28;20054;-72
2022/06/25 04:51:26;;;;;;;0.00;0.00;;;18.30;99.90;;;;;;5049724;28;20057;-72
2022/06/25 04:53:55;;;;;;;0.00;0.00;;;18.30;99.90;;;;;;5040246;28;20045;-72
2022/06/25 04:56:25;;;;;;;0.35;0.32;;;18.30;99.90;;;;;;5072812;28;20492;-72
2022/06/25 04:58:50;;;;;;;0.65;0.65;;;18.40;99.90;;;;;;5073448;28;20090;-72
2022/06/25 05:01:16;;;;;;;0.10;0.10;;;18.40;99.90;;;;;;5072350;28;20049;-72
2022/06/25 05:03:42;;;;;;;0.13;0.13;;;18.40;99.90;;;;;;5051462;28;20485;-72
2022/06/25 05:06:08;;;;;;;0.10;0.10;;;18.50;99.90;;;;;;5055460;28;20040;-72
2022/06/25 05:08:34;;;;;;;0.00;0.00;;;18.50;99.90;;;;;;5070372;28;20057;-72
2022/06/25 05:11:00;;;;;;;1.00;0.90;;;18.50;99.90;;;;;;5073125;28;20043;-72
2022/06/25 05:13:26;;;;;;;0.10;0.10;;;18.50;99.90;;;;;;5054154;28;20131;-72
2022/06/25 05:15:52;;;;;;;0.40;0.40;;;18.60;99.90;;;;;;5064610;28;20131;-72
2022/06/25 05:18:18;;;;;;;0.03;0.03;;;18.60;99.90;;;;;;5074813;28;20051;-72
2022/06/25 05:20:44;;;;;;;0.10;0.10;;;18.60;99.90;;;;;;5064964;28;20052;-72
2022/06/25 05:23:11;;;;;;;0.30;0.30;;;18.70;99.90;;;;;;5051458;28;20506;-72
2022/06/25 05:25:37;;;;;;;0.60;0.60;;;18.70;99.90;;;;;;5052703;28;20484;-72
2022/06/25 05:28:03;;;;;;;0.10;0.10;;;18.70;99.90;;;;;;5052078;28;20170;-72
2022/06/25 05:30:29;;;;;;;0.00;0.00;;;18.80;99.90;;;;;;5074665;28;20151;-72
2022/06/25 05:32:55;;;;;;;0.28;0.28;;;18.90;99.90;;;;;;5074637;28;20048;-72
2022/06/25 05:35:21;;;;;;;0.35;0.35;;;18.90;99.90;;;;;;5066111;28;20051;-72
2022/06/25 05:37:46;;;;;;;0.63;0.63;;;18.90;99.90;;;;;;5093197;28;20485;-72
2022/06/25 05:40:12;;;;;;;0.15;0.15;;;19.00;99.90;;;;;;5078408;28;20041;-72
2022/06/25 05:42:37;;;;;;;0.63;0.50;;;19.00;99.90;;;;;;5071889;28;20039;-72
2022/06/25 05:45:03;;;;;;;1.23;1.13;;;19.00;99.90;;;;;;5072448;28;20388;-72
2022/06/25 05:47:29;;;;;;;0.30;0.30;;;19.10;99.90;;;;;;5063550;28;20056;-71
2022/06/25 05:49:55;;;;;;;0.35;0.35;;;19.10;99.90;;;;;;5048933;28;20053;-72
2022/06/25 05:52:21;;;;;;;0.30;0.30;;;19.20;99.90;;;;;;5052129;28;20152;-72
2022/06/25 05:54:46;;;;;;;0.85;0.85;;;19.20;99.90;;;;;;5044697;28;20064;-72
2022/06/25 05:57:12;;;;;;;0.00;0.00;;;19.30;99.90;;;;;;5069821;28;20049;-72
2022/06/25 05:59:37;;;;;;;0.00;0.00;;;19.30;99.90;;;;;;5090406;28;20136;-72
2022/06/25 06:02:03;;;;;;;0.25;0.25;;;19.30;99.90;;;;;;5079446;28;20491;-72
2022/06/25 06:04:29;;;;;;;0.20;0.20;;;19.40;99.90;;;;;;5048215;28;20060;-72
2022/06/25 06:06:54;;;;;;;0.68;0.20;;;19.50;99.90;;;;;;5069206;28;20051;-72
2022/06/25 06:09:20;;;;;;;0.20;0.20;;;19.50;99.90;;;;;;5061513;28;20119;-72
2022/06/25 06:11:45;;;;;;;0.13;0.13;;;19.60;99.90;;;;;;5050009;28;20052;-72
2022/06/25 06:14:11;;;;;;;0.20;0.20;;;19.60;99.90;;;;;;5056041;28;20040;-72
2022/06/25 06:16:36;;;;;;;0.10;0.10;;;19.70;99.90;;;;;;5051089;28;20102;-72
2022/06/25 06:19:02;;;;;;;1.20;0.13;;;19.70;99.90;;;;;;5071856;28;20048;-72
2022/06/25 06:21:28;;;;;;;0.55;0.25;;;19.80;99.90;;;;;;5071573;28;20244;-72
2022/06/25 06:23:53;;;;;;;0.13;0.13;;;19.90;99.90;;;;;;5071178;28;20562;-72
2022/06/25 06:26:19;;;;;;;0.28;0.28;;;19.90;99.90;;;;;;5048388;28;20080;-72
2022/06/25 06:28:45;;;;;;;0.22;0.22;;;20.10;99.90;;;;;;5053910;28;20070;-72
2022/06/25 06:31:11;;;;;;;0.90;0.80;;;20.10;99.90;;;;;;5049614;28;20044;-72
2022/06/25 06:33:36;;;;;;;0.20;0.20;;;20.20;99.90;;;;;;5048666;28;20044;-72
2022/06/25 06:36:03;;;;;;;0.10;0.10;;;20.30;99.90;;;;;;5051286;28;20044;-72
2022/06/25 06:38:29;;;;;;;0.00;0.00;;;20.20;99.90;;;;;;5064641;28;20052;-72
2022/06/25 06:40:54;;;;;;;1.65;0.63;;;20.30;99.90;;;;;;5089600;28;20044;-72
2022/06/25 06:43:20;;;;;;;2.25;0.28;;;20.30;99.90;;;;;;5075896;28;20052;-72
2022/06/25 06:45:45;;;;;;;0.20;0.20;;;20.20;99.90;;;;;;5070873;28;20048;-72
2022/06/25 06:48:11;;;;;;;0.00;0.00;;;20.20;99.90;;;;;;5088840;28;20050;-72
2022/06/25 06:50:36;;;;;;;0.30;0.30;;;20.30;99.90;;;;;;5073500;28;20083;-73
2022/06/25 06:53:02;;;;;;;0.08;0.08;;;20.40;99.90;;;;;;5078082;28;20038;-72
2022/06/25 06:55:28;;;;;;;0.57;0.57;;;20.50;99.90;;;;;;5070976;28;20447;-72
2022/06/25 06:57:53;;;;;;;0.30;0.30;;;20.50;99.90;;;;;;5071787;28;20090;-72
2022/06/25 07:00:19;;;;;;;0.30;0.20;;;20.60;99.90;;;;;;5068992;28;20097;-73
2022/06/25 07:02:45;;;;;;;0.10;0.10;;;20.60;99.90;;;;;;5073622;28;20044;-72
2022/06/25 07:05:10;;;;;;;0.00;0.00;;;20.60;99.90;;;;;;5086855;28;20407;-72
2022/06/25 07:07:36;;;;;;;0.10;0.10;;;20.60;99.90;;;;;;5070112;28;20084;-72
2022/06/25 07:10:02;;;;;;;0.73;0.28;;;20.60;99.90;;;;;;5070921;28;20115;-72
2022/06/25 07:12:28;;;;;;;1.48;0.43;;;20.60;99.90;;;;;;5068883;28;20036;-73
2022/06/25 07:14:53;;;;;;;0.20;0.20;;;20.50;99.90;;;;;;5066083;28;20040;-72
2022/06/25 07:17:19;;;;;;;0.32;0.32;;;20.50;99.90;;;;;;5064434;28;20127;-72
2022/06/25 07:19:44;;;;;;;0.35;0.35;;;20.60;99.90;;;;;;5071406;28;20483;-72
2022/06/25 07:22:10;;;;;;;0.10;0.10;;;20.60;99.90;;;;;;5078961;28;20088;-73
2022/06/25 07:24:36;;;;;;;0.00;0.00;;;20.60;99.90;;;;;;5072650;28;20052;-72
2022/06/25 07:27:01;;;;;;;0.28;0.28;;;20.60;99.90;;;;;;5084041;28;20083;-72
2022/06/25 07:29:27;;;;;;;0.60;0.60;;;20.60;99.90;;;;;;5049001;28;20041;-72
2022/06/25 07:31:52;;;;;;;1.15;1.05;;;20.60;99.90;;;;;;5033038;28;20491;-72
2022/06/25 07:34:18;;;;;;;0.20;0.20;;;20.60;99.90;;;;;;5031961;28;20049;-72
2022/06/25 07:36:44;;;;;;;1.05;1.05;;;20.70;99.90;;;;;;5050516;28;20045;-72
2022/06/25 07:39:09;;;;;;;1.63;0.45;;;20.70;99.90;;;;;;5051749;28;20028;-72
2022/06/25 07:41:35;;;;;;;0.30;0.30;;;20.80;99.90;;;;;;5069589;28;20403;-72
2022/06/25 07:44:02;;;;;;;0.65;0.65;;;20.80;99.90;;;;;;5070125;28;20082;-72
2022/06/25 07:46:27;;;;;;;0.10;0.10;;;20.90;99.90;;;;;;5062641;28;20049;-72
2022/06/25 07:48:53;;;;;;;0.22;0.22;;;21.00;99.90;;;;;;5084750;28;20071;-72
2022/06/25 07:54:03;;;;;;;1.75;0.70;;;21.00;99.90;;;;;;5090156;28;20052;-72
2022/06/25 07:56:29;;;;;;;2.20;0.95;;;21.00;99.90;;;;;;5062594;28;20045;-72
2022/06/25 07:58:54;;;;;;;0.20;0.20;;;21.00;99.90;;;;;;5065283;28;20037;-72
2022/06/25 08:01:20;;;;;;;0.00;0.00;;;21.00;99.90;;;;;;5051546;28;20048;-71
2022/06/25 08:03:45;;;;;;;0.52;0.30;;;21.00;99.90;;;;;;5069853;28;20047;-73
2022/06/25 08:06:12;;;;;;;0.00;0.00;;;21.10;99.90;;;;;;5083760;28;20043;-73
2022/06/25 08:08:39;;;;;;;0.45;0.45;;;21.10;99.90;;;;;;5087759;28;20446;-73
2022/06/25 08:11:05;;;;;;;0.30;0.30;;;21.10;99.90;;;;;;5068280;28;20511;-73
2022/06/25 08:13:31;;;;;;;0.00;0.00;;;21.10;99.90;;;;;;5069836;28;20500;-72
2022/06/25 08:15:57;;;;;;;0.00;0.00;;;21.10;99.90;;;;;;5074304;28;20039;-73
2022/06/25 08:18:23;;;;;;;2.92;1.55;;;21.20;99.90;;;;;;5089077;28;20434;-72
2022/06/25 08:20:49;;;;;;;0.70;0.43;;;21.20;99.90;;;;;;5090034;28;20123;-72
2022/06/25 08:23:16;;;;;;;0.45;0.45;;;21.20;99.90;;;;;;5082897;28;20064;-72
2022/06/25 08:25:42;;;;;;;0.15;0.15;;;21.20;99.90;;;;;;5069394;28;20083;-72
2022/06/25 08:28:08;;;;;;;0.28;0.28;;;21.30;99.90;;;;;;5071080;28;20077;-72
2022/06/25 08:30:34;;;;;;;0.20;0.20;;;21.30;99.90;;;;;;5073104;28;20515;-72
2022/06/25 08:33:00;;;;;;;0.30;0.30;;;21.40;99.90;;;;;;5064666;28;20616;-72
2022/06/25 08:35:26;;;;;;;0.30;0.30;;;21.40;99.90;;;;;;5093916;28;20533;-72
2022/06/25 08:37:52;;;;;;;1.27;0.47;;;21.50;99.90;;;;;;5088385;28;20036;-72
2022/06/25 08:40:19;;;;;;;0.10;0.10;;;21.60;99.90;;;;;;5070266;28;20063;-72
2022/06/25 08:42:47;;;;;;;1.00;0.70;;;21.60;99.90;;;;;;5075829;28;20052;-72
2022/06/25 08:45:13;;;;;;;0.77;0.77;;;21.60;99.90;;;;;;5072865;28;20045;-72
2022/06/25 08:47:50;;;;;;;0.20;0.20;;;21.60;99.90;;;;;;5073505;28;20052;-72
2022/06/25 08:50:18;;;;;;;0.13;0.13;;;21.80;99.90;;;;;;5073584;28;20048;-72
2022/06/25 08:52:48;;;;;;;0.10;0.10;;;21.80;99.90;;;;;;5072840;28;20115;-72
2022/06/25 08:55:22;;;;;;;1.25;0.52;;;22.00;99.90;;;;;;5049309;28;20060;-72
2022/06/25 08:57:48;;;;;;;0.10;0.10;;;22.10;99.90;;;;;;5053515;28;20111;-72
2022/06/25 09:00:14;;;;;;;0.00;0.00;;;22.20;99.90;;;;;;5052515;28;20263;-71
2022/06/25 09:02:40;;;;;;;0.30;0.30;;;22.00;99.90;;;;;;5063666;28;20043;-71
2022/06/25 09:05:08;;;;;;;0.20;0.17;;;22.10;99.90;;;;;;5055324;28;20385;-72
2022/06/25 09:07:34;;;;;;;0.10;0.10;;;22.20;99.90;;;;;;5070959;28;20049;-72
2022/06/25 09:09:59;;;;;;;0.00;0.00;;;22.10;99.90;;;;;;5072826;28;20115;-72
2022/06/25 09:12:25;;;;;;;0.38;0.38;;;22.00;99.90;;;;;;5052664;28;20041;-71
2022/06/25 09:14:50;;;;;;;0.08;0.08;;;21.90;99.90;;;;;;5062106;28;20101;-72
2022/06/25 09:17:16;;;;;;;0.00;0.00;;;21.80;99.90;;;;;;5093139;28;20135;-72
2022/06/25 09:19:45;;;;;;;0.10;0.10;;;21.80;99.90;;;;;;5072760;28;20040;-72
2022/06/25 09:22:13;;;;;;;0.00;0.00;;;21.80;99.90;;;;;;5051287;28;20041;-72
2022/06/25 09:24:50;;;;;;;0.00;0.00;;;21.80;99.90;;;;;;5034828;28;20065;-72
2022/06/25 09:27:33;;;;;;;0.05;0.05;;;21.80;99.90;;;;;;5068356;28;20436;-72
2022/06/25 09:30:10;;;;;;;0.00;0.00;;;22.00;99.90;;;;;;5092924;28;20169;-72
2022/06/25 09:32:59;;;;;;;0.08;0.08;;;22.20;99.90;;;;;;5072178;28;20545;-72
2022/06/25 09:35:39;;;;;;;0.10;0.10;;;22.40;99.90;;;;;;5072159;28;20048;-72
2022/06/25 09:38:11;;;;;;;0.17;0.17;;;22.50;99.90;;;;;;5079306;28;20048;-72
2022/06/25 09:40:38;;;;;;;2.93;0.80;;;22.70;99.90;;;;;;5075231;28;20040;-72
2022/06/25 09:43:17;;;;;;;0.60;0.60;;;22.80;99.90;;;;;;5072412;28;20040;-72
2022/06/25 09:45:44;;;;;;;0.10;0.10;;;22.90;99.90;;;;;;5071328;28;20045;-72
2022/06/25 09:48:26;;;;;;;2.50;1.20;;;23.00;99.90;;;;;;5051350;28;20484;-72
2022/06/25 09:51:10;;;;;;;0.00;0.00;;;23.20;99.90;;;;;;5072884;28;20047;-72
2022/06/25 09:53:57;;;;;;;0.08;0.08;;;23.40;99.90;;;;;;5083984;28;20044;-72
2022/06/25 09:56:26;;;;;;;0.73;0.73;;;23.60;99.90;;;;;;5091742;28;20399;-72
2022/06/25 09:58:53;;;;;;;0.45;0.45;;;23.50;99.90;;;;;;5092837;28;20036;-71
2022/06/25 10:01:23;;;;;;;0.63;0.63;;;23.40;99.90;;;;;;5069982;28;20051;-72
2022/06/25 10:03:49;;;;;;;0.22;0.22;;;23.40;99.90;;;;;;5050441;28;20049;-72
2022/06/25 10:06:17;;;;;;;0.00;0.00;;;23.50;99.90;;;;;;5051923;28;20515;-72
2022/06/25 10:08:49;;;;;;;0.00;0.00;;;23.70;99.90;;;;;;5061009;28;20052;-72
2022/06/25 10:11:16;;;;;;;0.50;0.32;;;23.70;99.90;;;;;;5050327;28;20049;-72
2022/06/25 10:13:43;;;;;;;0.00;0.00;;;23.60;99.90;;;;;;5052152;28;20041;-72
2022/06/25 10:16:08;;;;;;;0.35;0.35;;;23.60;99.90;;;;;;5051182;28;20048;-72
2022/06/25 10:18:36;;;;;;;0.10;0.10;;;23.50;99.90;;;;;;5071609;28;20044;-72
2022/06/25 10:21:02;;;;;;;14.45;0.50;;;23.40;99.90;;;;;;5071561;28;20491;-72
2022/06/25 10:23:28;;;;;;;0.98;0.60;;;23.40;99.90;;;;;;5053052;28;20040;-72
2022/06/25 10:25:54;;;;;;;1.08;0.95;;;23.10;99.90;;;;;;5050168;28;20501;-71
2022/06/25 10:28:28;;;;;;;0.00;0.00;;;23.00;99.90;;;;;;5051195;28;20052;-72
2022/06/25 10:30:58;;;;;;;0.00;0.00;;;22.80;99.90;;;;;;5050998;28;20493;-72
2022/06/25 10:33:30;;;;;;;1.25;0.10;;;22.90;99.90;;;;;;5080150;28;20062;-72
2022/06/25 10:35:57;;;;;;;0.08;0.08;;;22.90;99.90;;;;;;5091781;28;20040;-72
2022/06/25 10:38:25;;;;;;;0.30;0.30;;;22.80;99.90;;;;;;5081483;28;20066;-71
2022/06/25 10:40:55;;;;;;;0.10;0.10;;;22.50;99.90;;;;;;5052585;28;20059;-72
2022/06/25 10:43:41;;;;;;;0.10;0.10;;;22.30;99.90;;;;;;5050525;28;20049;-72
2022/06/25 10:46:28;;;;;;;0.00;0.00;;;22.10;99.90;;;;;;5068689;28;20050;-72
2022/06/25 10:49:03;;;;;;;0.20;0.20;;;22.00;99.90;;;;;;5051494;28;20484;-71
2022/06/25 10:51:29;;;;;;;0.10;0.10;;;21.90;99.90;;;;;;5070331;28;20385;-71
2022/06/25 10:53:55;;;;;;;0.10;0.10;;;21.80;99.90;;;;;;5071112;28;20518;-72
2022/06/25 10:56:21;;;;;;;0.00;0.00;;;21.70;99.90;;;;;;5052912;28;20446;-71
2022/06/25 10:58:48;;;;;;;0.00;0.00;;;21.70;99.90;;;;;;5068287;28;20037;-72
2022/06/25 11:01:26;;;;;;;0.10;0.10;;;21.60;99.90;;;;;;5070769;28;20094;-72
2022/06/25 11:03:58;;;;;;;9.70;0.17;;;21.60;99.90;;;;;;5071431;28;20037;-71
2022/06/25 11:06:35;;;;;;;0.00;0.00;;;21.70;99.90;;;;;;5052339;28;20048;-72
2022/06/25 11:09:10;;;;;;;0.10;0.10;;;21.70;99.90;;;;;;5068571;28;20134;-72
2022/06/25 11:11:36;;;;;;;0.00;0.00;;;21.90;99.90;;;;;;5069231;28;20068;-71
2022/06/25 11:14:11;;;;;;;0.30;0.30;;;22.00;99.90;;;;;;5069663;28;20032;-72
2022/06/25 11:16:36;;;;;;;0.00;0.00;;;22.30;99.90;;;;;;5071948;28;20441;-72
2022/06/25 11:19:02;;;;;;;0.00;0.00;;;22.40;99.90;;;;;;5071642;28;20043;-71
2022/06/25 11:21:37;;;;;;;0.00;0.00;;;22.60;99.90;;;;;;5081799;28;20094;-71
2022/06/25 11:24:23;;;;;;;0.10;0.10;;;22.90;99.90;;;;;;5069711;28;20047;-72
2022/06/25 11:29:39;;;;;;;0.03;0.03;;;23.30;99.90;;;;;;5050578;28;20056;-72
2022/06/25 11:32:05;;;;;;;0.30;0.30;;;23.50;99.90;;;;;;5050395;28;20041;-71
2022/06/25 11:34:31;;;;;;;0.00;0.00;;;23.20;99.90;;;;;;5054801;28;20502;-72
2022/06/25 11:37:00;;;;;;;0.08;0.08;;;22.80;99.90;;;;;;5051774;28;20052;-71
2022/06/25 11:39:27;;;;;;;0.00;0.00;;;22.50;99.90;;;;;;5083903;28;20036;-72
2022/06/25 11:41:54;;;;;;;0.00;0.00;;;22.30;99.90;;;;;;5051926;28;20415;-72
2022/06/25 11:44:19;;;;;;;1.20;0.43;;;22.20;99.90;;;;;;5050481;28;20040;-72
2022/06/25 11:46:47;;;;;;;1.17;0.35;;;22.00;99.90;;;;;;5049194;28;20442;-72
2022/06/25 11:49:13;;;;;;;0.20;0.20;;;21.90;99.90;;;;;;5049527;28;20090;-72
2022/06/25 11:51:51;;;;;;;0.40;0.40;;;21.90;99.90;;;;;;5032407;28;20469;-72
2022/06/25 11:54:20;;;;;;;0.55;0.47;;;21.80;99.90;;;;;;5055213;28;20472;-71
2022/06/25 11:56:51;;;;;;;0.00;0.00;;;21.80;99.90;;;;;;5090480;28;20114;-71
2022/06/25 11:59:42;;;;;;;0.10;0.10;;;21.80;99.90;;;;;;5071408;28;20051;-71
2022/06/25 12:02:09;;;;;;;0.00;0.00;;;21.70;99.90;;;;;;5064012;28;20053;-71
2022/06/25 12:04:48;;;;;;;0.05;0.05;;;21.70;99.90;;;;;;5049345;28;20041;-72
2022/06/25 12:07:35;;;;;;;0.55;0.50;;;21.70;99.90;;;;;;5069698;28;20560;-72
2022/06/25 12:10:09;;;;;;;0.15;0.15;;;21.70;99.90;;;;;;5069088;28;20052;-72
2022/06/25 12:12:36;;;;;;;0.40;0.40;;;21.80;99.90;;;;;;5068029;28;20049;-72
2022/06/25 12:15:02;;;;;;;0.10;0.10;;;22.00;99.90;;;;;;5069362;28;20491;-72
2022/06/25 12:17:33;;;;;;;0.00;0.00;;;22.00;99.90;;;;;;5061401;28;20076;-72
2022/06/25 12:20:13;;;;;;;0.10;0.10;;;22.10;99.90;;;;;;5089999;28;20048;-72
2022/06/25 12:22:48;;;;;;;0.30;0.30;;;22.10;99.90;;;;;;5089523;28;20139;-72
2022/06/25 12:25:32;;;;;;;0.75;0.22;;;22.20;99.90;;;;;;5067379;28;20377;-72
2022/06/25 12:27:58;;;;;;;0.00;0.00;;;22.30;99.90;;;;;;5069759;28;20052;-71
2022/06/25 12:30:28;;;;;;;0.10;0.10;;;22.60;99.90;;;;;;5067200;28;20514;-72
2022/06/25 12:32:57;;;;;;;0.20;0.20;;;22.80;99.90;;;;;;5070245;28;20044;-72
2022/06/25 12:35:25;;;;;;;0.00;0.00;;;23.40;99.90;;;;;;5080333;28;20048;-71
2022/06/25 12:38:12;;;;;;;0.20;0.20;;;24.00;99.90;;;;;;5089260;28;20076;-72
2022/06/25 12:40:45;;;;;;;0.38;0.32;;;24.30;99.90;;;;;;5073080;28;20080;-72
2022/06/25 12:43:13;;;;;;;0.00;0.00;;;24.50;99.90;;;;;;5087285;28;20173;-72
2022/06/25 12:45:41;;;;;;;4.28;0.43;;;24.50;99.90;;;;;;5078148;28;20587;-72
2022/06/25 12:48:10;;;;;;;0.20;0.20;;;24.30;99.90;;;;;;5048232;28;20037;-72
2022/06/25 12:50:37;;;;;;;0.55;0.55;;;24.70;99.90;;;;;;5048910;28;20045;-72
2022/06/25 12:53:15;;;;;;;0.10;0.10;;;24.60;99.90;;;;;;5043542;28;20384;-72
2022/06/25 12:55:45;;;;;;;0.00;0.00;;;24.30;99.90;;;;;;5033682;28;20056;-72
2022/06/25 12:58:15;;;;;;;0.95;0.20;;;24.20;99.90;;;;;;5038166;28;20075;-72